Pettus, Arkansas
Current Conditions -  °F | °C
As of 11:58 AM on Tuesday 21 Oct 2014 (Local Time) from KLRF Reporting Station
Haze Haze  
Wind Chill: 73°   Ceiling: Unl
Heat Index: 73°   Visibility: 6mi
Dew Point: 52°   Wind: 0mph
Humidity: 49%   Direction: NA
Pressure: 30.12"   Gusts: NA
Location:  34.7557°N, 91.9476°W
Report Text: KLRF 211658Z AUTO 00000KT 6SM HZ CLR 23/11 A3012 RMK AO2 SLP201 T02250113
Loading
Personal Weather Stations






























Interactive Weather Map
Tropical Storm Tracking
New forecast layout! Learn more

10-Day Weather Forecast

Advertisements
Track Severe Weather on mobile